Yue Zhu Hai 4038 — 4038 — position and weather

sailwx.info

Track history (hours):
 
Tides and Currents Weather Stations Pressure Air Temp Water Temp Dewpoint Dewpoint Depression Visibility Wind Speed Wind Dir Waves Ship Positions

Yue Zhu Hai 4038

Last reported at 2017-Nov-19 23:26 UTC. Time now 2017-Nov-24 20:53 UTC.
Position N 22°16' E 113°36'.

Length 21 m.

Type: Fishing. MMSI: 412478675.

Date/timePositionNaut miles runAvg speedWind from/ knotsBaromVisibWave heightAir tempDewpointWater temp
2017-Nov-19 23:26N 22°16' E 113°36'3 8.0
2017-Nov-19 23:00N 22°12' E 113°36'2 4.7
2017-Nov-19 22:30N 22°11' E 113°35'3 0.1
2017-Nov-18 08:35N 22°11' E 113°32'1 8.1
2017-Nov-18 08:30N 22°11' E 113°33'4 8.6
2017-Nov-18 08:00N 22°10' E 113°37'4 8.7
2017-Nov-18 07:30N 22°09' E 113°42'4 8.3
2017-Nov-18 07:00N 22°08' E 113°46'0 0.8
2017-Nov-18 06:30N 22°09' E 113°46'5 9.2
2017-Nov-18 06:00N 22°09' E 113°41'5 9.4
2017-Nov-18 05:30N 22°10' E 113°36'4 8.2
2017-Nov-18 05:00N 22°11' E 113°32'  
Track history (hours):
 
Tides and Currents Weather Stations Pressure Air Temp Water Temp Dewpoint Dewpoint Depression Visibility Wind Speed Wind Dir Waves Ship Positions

Yue Zhu Hai 4038

Last reported at 2017-Nov-19 23:26 UTC. Time now 2017-Nov-24 20:53 UTC.
Position N 22°16' E 113°36'.

Length 21 m.

Type: Fishing. MMSI: 412478675.

Date/timePositionNaut miles runAvg speedWind from/ knotsBaromVisibWave heightAir tempDewpointWater temp
2017-Nov-19 23:26N 22°16' E 113°36'3 8.0
2017-Nov-19 23:00N 22°12' E 113°36'2 4.7
2017-Nov-19 22:30N 22°11' E 113°35'3 0.1
2017-Nov-18 08:35N 22°11' E 113°32'1 8.1
2017-Nov-18 08:30N 22°11' E 113°33'4 8.6
2017-Nov-18 08:00N 22°10' E 113°37'4 8.7
2017-Nov-18 07:30N 22°09' E 113°42'4 8.3
2017-Nov-18 07:00N 22°08' E 113°46'0 0.8
2017-Nov-18 06:30N 22°09' E 113°46'5 9.2
2017-Nov-18 06:00N 22°09' E 113°41'5 9.4
2017-Nov-18 05:30N 22°10' E 113°36'4 8.2
2017-Nov-18 05:00N 22°11' E 113°32'  

Dump ship's entire track history